sensor_id;sensor_type;location;lat;lon;timestamp;P1;durP1;ratioP1;P2;durP2;ratioP2
57071;SDS011;42956;51.366;11.298;2023-04-06T00:01:56;17.23;;;11.55;;
57071;SDS011;42956;51.366;11.298;2023-04-06T00:04:24;19.63;;;12.07;;
57071;SDS011;42956;51.366;11.298;2023-04-06T00:06:53;24.48;;;13.10;;
57071;SDS011;42956;51.366;11.298;2023-04-06T00:09:22;20.80;;;12.77;;
57071;SDS011;42956;51.366;11.298;2023-04-06T00:11:50;16.15;;;12.18;;
57071;SDS011;42956;51.366;11.298;2023-04-06T00:14:18;19.35;;;11.88;;
57071;SDS011;42956;51.366;11.298;2023-04-06T00:16:46;18.45;;;11.60;;
57071;SDS011;42956;51.366;11.298;2023-04-06T00:19:14;21.70;;;12.88;;
57071;SDS011;42956;51.366;11.298;2023-04-06T00:21:41;17.38;;;11.90;;
57071;SDS011;42956;51.366;11.298;2023-04-06T00:24:10;21.25;;;12.15;;
57071;SDS011;42956;51.366;11.298;2023-04-06T00:26:39;19.50;;;12.40;;
57071;SDS011;42956;51.366;11.298;2023-04-06T00:29:07;21.00;;;12.02;;
57071;SDS011;42956;51.366;11.298;2023-04-06T00:31:35;18.00;;;12.95;;
57071;SDS011;42956;51.366;11.298;2023-04-06T00:34:03;22.25;;;13.10;;
57071;SDS011;42956;51.366;11.298;2023-04-06T00:36:31;17.27;;;11.70;;
57071;SDS011;42956;51.366;11.298;2023-04-06T00:38:59;18.50;;;12.85;;
57071;SDS011;42956;51.366;11.298;2023-04-06T00:41:27;21.95;;;12.48;;
57071;SDS011;42956;51.366;11.298;2023-04-06T00:43:56;20.08;;;12.88;;
57071;SDS011;42956;51.366;11.298;2023-04-06T00:46:24;17.58;;;12.40;;
57071;SDS011;42956;51.366;11.298;2023-04-06T00:48:52;19.33;;;13.07;;
57071;SDS011;42956;51.366;11.298;2023-04-06T00:51:20;19.33;;;11.05;;
57071;SDS011;42956;51.366;11.298;2023-04-06T00:53:48;17.42;;;12.02;;
57071;SDS011;42956;51.366;11.298;2023-04-06T00:56:16;16.30;;;11.30;;
57071;SDS011;42956;51.366;11.298;2023-04-06T00:58:44;13.38;;;10.20;;
57071;SDS011;42956;51.366;11.298;2023-04-06T01:01:13;17.08;;;11.48;;
57071;SDS011;42956;51.366;11.298;2023-04-06T01:03:41;15.98;;;11.38;;
57071;SDS011;42956;51.366;11.298;2023-04-06T01:06:10;15.23;;;10.07;;
57071;SDS011;42956;51.366;11.298;2023-04-06T01:08:39;15.60;;;10.02;;
57071;SDS011;42956;51.366;11.298;2023-04-06T01:11:07;15.75;;;10.23;;
57071;SDS011;42956;51.366;11.298;2023-04-06T01:13:35;14.43;;;9.68;;
57071;SDS011;42956;51.366;11.298;2023-04-06T01:16:03;12.10;;;9.52;;
57071;SDS011;42956;51.366;11.298;2023-04-06T01:18:32;14.45;;;9.95;;
57071;SDS011;42956;51.366;11.298;2023-04-06T01:21:00;15.65;;;9.93;;
57071;SDS011;42956;51.366;11.298;2023-04-06T01:25:59;16.75;;;10.27;;
57071;SDS011;42956;51.366;11.298;2023-04-06T01:28:27;13.82;;;9.43;;
57071;SDS011;42956;51.366;11.298;2023-04-06T01:30:54;15.45;;;10.20;;
57071;SDS011;42956;51.366;11.298;2023-04-06T01:33:22;17.67;;;10.95;;
57071;SDS011;42956;51.366;11.298;2023-04-06T01:35:50;15.40;;;11.00;;
57071;SDS011;42956;51.366;11.298;2023-04-06T01:38:18;16.55;;;11.80;;
57071;SDS011;42956;51.366;11.298;2023-04-06T01:40:46;15.50;;;11.15;;
57071;SDS011;42956;51.366;11.298;2023-04-06T01:43:16;18.75;;;11.65;;
57071;SDS011;42956;51.366;11.298;2023-04-06T01:45:44;17.77;;;12.18;;
57071;SDS011;42956;51.366;11.298;2023-04-06T01:48:12;16.42;;;13.00;;
57071;SDS011;42956;51.366;11.298;2023-04-06T01:50:40;19.35;;;12.90;;
57071;SDS011;42956;51.366;11.298;2023-04-06T01:53:08;17.83;;;12.30;;
57071;SDS011;42956;51.366;11.298;2023-04-06T01:55:36;18.10;;;12.60;;
57071;SDS011;42956;51.366;11.298;2023-04-06T01:58:04;14.65;;;11.55;;
57071;SDS011;42956;51.366;11.298;2023-04-06T02:00:33;19.63;;;12.43;;
57071;SDS011;42956;51.366;11.298;2023-04-06T02:03:01;19.02;;;12.32;;
57071;SDS011;42956;51.366;11.298;2023-04-06T02:05:30;18.48;;;12.25;;
57071;SDS011;42956;51.366;11.298;2023-04-06T02:08:00;19.17;;;11.77;;
57071;SDS011;42956;51.366;11.298;2023-04-06T02:10:27;17.05;;;10.82;;
57071;SDS011;42956;51.366;11.298;2023-04-06T02:12:55;17.02;;;11.43;;
57071;SDS011;42956;51.366;11.298;2023-04-06T02:15:23;16.50;;;11.15;;
57071;SDS011;42956;51.366;11.298;2023-04-06T02:17:53;17.48;;;12.07;;
57071;SDS011;42956;51.366;11.298;2023-04-06T02:20:21;18.48;;;12.00;;
57071;SDS011;42956;51.366;11.298;2023-04-06T02:22:49;16.38;;;11.57;;
57071;SDS011;42956;51.366;11.298;2023-04-06T02:25:17;16.90;;;12.00;;
57071;SDS011;42956;51.366;11.298;2023-04-06T02:27:44;18.85;;;11.93;;
57071;SDS011;42956;51.366;11.298;2023-04-06T02:30:13;15.50;;;11.38;;
57071;SDS011;42956;51.366;11.298;2023-04-06T02:32:41;15.05;;;11.43;;
57071;SDS011;42956;51.366;11.298;2023-04-06T02:35:10;16.00;;;12.52;;
57071;SDS011;42956;51.366;11.298;2023-04-06T02:37:38;17.10;;;11.43;;
57071;SDS011;42956;51.366;11.298;2023-04-06T02:40:06;14.60;;;10.60;;
57071;SDS011;42956;51.366;11.298;2023-04-06T02:42:34;17.40;;;11.85;;
57071;SDS011;42956;51.366;11.298;2023-04-06T02:45:03;17.90;;;11.38;;
57071;SDS011;42956;51.366;11.298;2023-04-06T02:47:31;18.02;;;11.50;;
57071;SDS011;42956;51.366;11.298;2023-04-06T02:49:58;16.50;;;11.80;;
57071;SDS011;42956;51.366;11.298;2023-04-06T02:52:28;19.73;;;12.55;;
57071;SDS011;42956;51.366;11.298;2023-04-06T02:54:56;19.92;;;12.23;;
57071;SDS011;42956;51.366;11.298;2023-04-06T02:57:23;15.80;;;11.00;;
57071;SDS011;42956;51.366;11.298;2023-04-06T02:59:51;18.58;;;12.55;;
57071;SDS011;42956;51.366;11.298;2023-04-06T03:02:19;17.38;;;12.07;;
57071;SDS011;42956;51.366;11.298;2023-04-06T03:04:47;19.67;;;11.70;;
57071;SDS011;42956;51.366;11.298;2023-04-06T03:07:15;22.27;;;12.18;;
57071;SDS011;42956;51.366;11.298;2023-04-06T03:09:44;20.73;;;13.40;;
57071;SDS011;42956;51.366;11.298;2023-04-06T03:12:12;19.33;;;12.18;;
57071;SDS011;42956;51.366;11.298;2023-04-06T03:14:40;15.55;;;11.63;;
57071;SDS011;42956;51.366;11.298;2023-04-06T03:17:08;20.17;;;11.88;;
57071;SDS011;42956;51.366;11.298;2023-04-06T03:19:36;22.33;;;12.90;;
57071;SDS011;42956;51.366;11.298;2023-04-06T03:22:04;34.38;;;12.75;;
57071;SDS011;42956;51.366;11.298;2023-04-06T03:24:31;19.95;;;12.63;;
57071;SDS011;42956;51.366;11.298;2023-04-06T03:27:01;21.77;;;12.90;;
57071;SDS011;42956;51.366;11.298;2023-04-06T03:29:29;19.38;;;12.43;;
57071;SDS011;42956;51.366;11.298;2023-04-06T03:31:57;20.20;;;12.35;;
57071;SDS011;42956;51.366;11.298;2023-04-06T03:34:25;31.17;;;13.70;;
57071;SDS011;42956;51.366;11.298;2023-04-06T03:36:53;21.60;;;13.43;;
57071;SDS011;42956;51.366;11.298;2023-04-06T03:39:35;19.73;;;13.90;;
57071;SDS011;42956;51.366;11.298;2023-04-06T03:42:04;27.17;;;14.73;;
57071;SDS011;42956;51.366;11.298;2023-04-06T03:44:32;25.90;;;13.68;;
57071;SDS011;42956;51.366;11.298;2023-04-06T03:47:00;23.08;;;14.55;;
57071;SDS011;42956;51.366;11.298;2023-04-06T03:49:29;23.52;;;15.13;;
57071;SDS011;42956;51.366;11.298;2023-04-06T03:51:56;26.52;;;16.05;;
57071;SDS011;42956;51.366;11.298;2023-04-06T03:54:24;24.73;;;14.77;;
57071;SDS011;42956;51.366;11.298;2023-04-06T03:56:52;29.48;;;14.20;;
57071;SDS011;42956;51.366;11.298;2023-04-06T03:59:22;23.50;;;13.50;;
57071;SDS011;42956;51.366;11.298;2023-04-06T04:01:50;24.48;;;13.18;;
57071;SDS011;42956;51.366;11.298;2023-04-06T04:04:18;28.67;;;15.20;;
57071;SDS011;42956;51.366;11.298;2023-04-06T04:06:46;22.88;;;14.32;;
57071;SDS011;42956;51.366;11.298;2023-04-06T04:09:14;22.48;;;14.02;;
57071;SDS011;42956;51.366;11.298;2023-04-06T04:11:42;23.35;;;14.15;;
57071;SDS011;42956;51.366;11.298;2023-04-06T04:14:10;21.80;;;14.82;;
57071;SDS011;42956;51.366;11.298;2023-04-06T04:16:39;18.48;;;14.43;;
57071;SDS011;42956;51.366;11.298;2023-04-06T04:19:08;25.98;;;15.50;;
57071;SDS011;42956;51.366;11.298;2023-04-06T04:21:41;24.35;;;14.00;;
57071;SDS011;42956;51.366;11.298;2023-04-06T04:24:10;25.00;;;15.23;;
57071;SDS011;42956;51.366;11.298;2023-04-06T04:26:38;19.00;;;13.10;;
57071;SDS011;42956;51.366;11.298;2023-04-06T04:29:06;18.10;;;13.55;;
57071;SDS011;42956;51.366;11.298;2023-04-06T04:31:35;24.50;;;15.98;;
57071;SDS011;42956;51.366;11.298;2023-04-06T04:34:04;20.00;;;14.73;;
57071;SDS011;42956;51.366;11.298;2023-04-06T04:36:33;22.92;;;14.35;;
57071;SDS011;42956;51.366;11.298;2023-04-06T04:39:01;24.27;;;16.70;;
57071;SDS011;42956;51.366;11.298;2023-04-06T04:41:29;21.25;;;14.68;;
57071;SDS011;42956;51.366;11.298;2023-04-06T04:43:57;22.23;;;15.60;;
57071;SDS011;42956;51.366;11.298;2023-04-06T04:46:27;24.83;;;15.38;;
57071;SDS011;42956;51.366;11.298;2023-04-06T04:48:57;22.02;;;14.60;;
57071;SDS011;42956;51.366;11.298;2023-04-06T04:51:27;22.60;;;14.63;;
57071;SDS011;42956;51.366;11.298;2023-04-06T04:53:54;24.45;;;14.52;;
57071;SDS011;42956;51.366;11.298;2023-04-06T04:56:22;22.00;;;14.75;;
57071;SDS011;42956;51.366;11.298;2023-04-06T04:58:50;18.60;;;13.18;;
57071;SDS011;42956;51.366;11.298;2023-04-06T05:01:18;24.52;;;15.65;;
57071;SDS011;42956;51.366;11.298;2023-04-06T05:03:46;20.52;;;14.48;;
57071;SDS011;42956;51.366;11.298;2023-04-06T05:06:14;20.25;;;13.00;;
57071;SDS011;42956;51.366;11.298;2023-04-06T05:08:43;20.48;;;13.43;;
57071;SDS011;42956;51.366;11.298;2023-04-06T05:11:11;22.15;;;14.45;;
57071;SDS011;42956;51.366;11.298;2023-04-06T05:13:41;26.10;;;14.77;;
57071;SDS011;42956;51.366;11.298;2023-04-06T05:16:09;25.77;;;16.05;;
57071;SDS011;42956;51.366;11.298;2023-04-06T05:18:37;22.95;;;14.77;;
57071;SDS011;42956;51.366;11.298;2023-04-06T05:21:05;22.25;;;13.90;;
57071;SDS011;42956;51.366;11.298;2023-04-06T05:23:33;23.67;;;14.80;;
57071;SDS011;42956;51.366;11.298;2023-04-06T05:26:02;22.23;;;14.70;;
57071;SDS011;42956;51.366;11.298;2023-04-06T05:28:30;23.98;;;13.85;;
57071;SDS011;42956;51.366;11.298;2023-04-06T05:30:58;17.42;;;12.93;;
57071;SDS011;42956;51.366;11.298;2023-04-06T05:33:26;22.23;;;13.68;;
57071;SDS011;42956;51.366;11.298;2023-04-06T05:35:54;23.20;;;13.00;;
57071;SDS011;42956;51.366;11.298;2023-04-06T05:38:22;17.50;;;13.35;;
57071;SDS011;42956;51.366;11.298;2023-04-06T05:40:50;21.95;;;13.52;;
57071;SDS011;42956;51.366;11.298;2023-04-06T05:43:19;23.55;;;12.85;;
57071;SDS011;42956;51.366;11.298;2023-04-06T05:45:48;19.08;;;13.38;;
57071;SDS011;42956;51.366;11.298;2023-04-06T05:48:16;21.42;;;13.02;;
57071;SDS011;42956;51.366;11.298;2023-04-06T05:50:47;24.77;;;13.63;;
57071;SDS011;42956;51.366;11.298;2023-04-06T05:53:16;21.20;;;13.30;;
57071;SDS011;42956;51.366;11.298;2023-04-06T05:55:44;19.98;;;12.52;;
57071;SDS011;42956;51.366;11.298;2023-04-06T05:58:12;20.33;;;14.05;;
57071;SDS011;42956;51.366;11.298;2023-04-06T06:00:41;23.73;;;13.38;;
57071;SDS011;42956;51.366;11.298;2023-04-06T06:05:41;21.52;;;14.55;;
57071;SDS011;42956;51.366;11.298;2023-04-06T06:08:09;22.27;;;15.07;;
57071;SDS011;42956;51.366;11.298;2023-04-06T06:10:38;31.02;;;17.05;;
57071;SDS011;42956;51.366;11.298;2023-04-06T06:13:06;27.25;;;18.30;;
57071;SDS011;42956;51.366;11.298;2023-04-06T06:15:34;36.15;;;19.90;;
57071;SDS011;42956;51.366;11.298;2023-04-06T06:18:03;34.33;;;21.27;;
57071;SDS011;42956;51.366;11.298;2023-04-06T06:20:31;33.13;;;18.63;;
57071;SDS011;42956;51.366;11.298;2023-04-06T06:22:59;28.27;;;17.30;;
57071;SDS011;42956;51.366;11.298;2023-04-06T06:25:27;33.05;;;16.38;;
57071;SDS011;42956;51.366;11.298;2023-04-06T06:27:57;23.73;;;16.23;;
57071;SDS011;42956;51.366;11.298;2023-04-06T06:30:25;25.75;;;16.05;;
57071;SDS011;42956;51.366;11.298;2023-04-06T06:32:53;39.55;;;19.35;;
57071;SDS011;42956;51.366;11.298;2023-04-06T06:35:22;28.85;;;17.58;;
57071;SDS011;42956;51.366;11.298;2023-04-06T06:37:50;34.78;;;17.85;;
57071;SDS011;42956;51.366;11.298;2023-04-06T06:40:19;31.60;;;17.67;;
57071;SDS011;42956;51.366;11.298;2023-04-06T06:42:50;24.40;;;15.23;;
57071;SDS011;42956;51.366;11.298;2023-04-06T06:45:19;24.95;;;16.30;;
57071;SDS011;42956;51.366;11.298;2023-04-06T06:47:47;25.55;;;14.98;;
57071;SDS011;42956;51.366;11.298;2023-04-06T06:50:15;22.50;;;15.45;;
57071;SDS011;42956;51.366;11.298;2023-04-06T06:52:44;22.35;;;14.45;;
57071;SDS011;42956;51.366;11.298;2023-04-06T06:55:12;21.88;;;15.60;;
57071;SDS011;42956;51.366;11.298;2023-04-06T06:57:40;35.65;;;17.45;;
57071;SDS011;42956;51.366;11.298;2023-04-06T07:00:09;29.33;;;16.67;;
57071;SDS011;42956;51.366;11.298;2023-04-06T07:02:39;32.50;;;16.95;;
57071;SDS011;42956;51.366;11.298;2023-04-06T07:05:07;29.80;;;16.35;;
57071;SDS011;42956;51.366;11.298;2023-04-06T07:07:53;29.08;;;16.75;;
57071;SDS011;42956;51.366;11.298;2023-04-06T07:10:21;26.65;;;16.30;;
57071;SDS011;42956;51.366;11.298;2023-04-06T07:12:49;26.95;;;15.25;;
57071;SDS011;42956;51.366;11.298;2023-04-06T07:15:17;27.85;;;15.10;;
57071;SDS011;42956;51.366;11.298;2023-04-06T07:17:45;27.60;;;15.68;;
57071;SDS011;42956;51.366;11.298;2023-04-06T07:20:13;19.55;;;13.02;;
57071;SDS011;42956;51.366;11.298;2023-04-06T07:22:42;24.67;;;13.80;;
57071;SDS011;42956;51.366;11.298;2023-04-06T07:25:14;20.17;;;12.73;;
57071;SDS011;42956;51.366;11.298;2023-04-06T07:27:42;24.88;;;13.63;;
57071;SDS011;42956;51.366;11.298;2023-04-06T07:30:10;15.32;;;11.73;;
57071;SDS011;42956;51.366;11.298;2023-04-06T07:32:38;19.88;;;12.48;;
57071;SDS011;42956;51.366;11.298;2023-04-06T07:35:09;15.27;;;12.27;;
57071;SDS011;42956;51.366;11.298;2023-04-06T07:37:36;18.65;;;11.80;;
57071;SDS011;42956;51.366;11.298;2023-04-06T07:40:05;14.38;;;11.38;;
57071;SDS011;42956;51.366;11.298;2023-04-06T07:42:34;16.40;;;12.05;;
57071;SDS011;42956;51.366;11.298;2023-04-06T07:45:03;15.65;;;11.32;;
57071;SDS011;42956;51.366;11.298;2023-04-06T07:47:31;13.32;;;10.68;;
57071;SDS011;42956;51.366;11.298;2023-04-06T07:49:59;14.85;;;10.80;;
57071;SDS011;42956;51.366;11.298;2023-04-06T07:52:27;18.98;;;12.20;;
57071;SDS011;42956;51.366;11.298;2023-04-06T07:54:55;21.52;;;12.25;;
57071;SDS011;42956;51.366;11.298;2023-04-06T07:57:23;16.15;;;11.75;;
57071;SDS011;42956;51.366;11.298;2023-04-06T07:59:52;17.90;;;11.60;;
57071;SDS011;42956;51.366;11.298;2023-04-06T08:02:20;17.05;;;12.68;;
57071;SDS011;42956;51.366;11.298;2023-04-06T08:04:48;18.85;;;11.30;;
57071;SDS011;42956;51.366;11.298;2023-04-06T08:07:16;15.55;;;9.75;;
57071;SDS011;42956;51.366;11.298;2023-04-06T08:09:44;17.13;;;11.43;;
57071;SDS011;42956;51.366;11.298;2023-04-06T08:12:12;17.50;;;11.40;;
57071;SDS011;42956;51.366;11.298;2023-04-06T08:14:40;16.02;;;12.35;;
57071;SDS011;42956;51.366;11.298;2023-04-06T08:17:09;17.73;;;10.75;;
57071;SDS011;42956;51.366;11.298;2023-04-06T08:19:37;19.50;;;13.00;;
57071;SDS011;42956;51.366;11.298;2023-04-06T08:22:05;19.92;;;12.68;;
57071;SDS011;42956;51.366;11.298;2023-04-06T08:24:33;16.63;;;10.70;;
57071;SDS011;42956;51.366;11.298;2023-04-06T08:27:01;14.27;;;9.13;;
57071;SDS011;42956;51.366;11.298;2023-04-06T08:29:29;10.88;;;8.88;;
57071;SDS011;42956;51.366;11.298;2023-04-06T08:31:57;15.50;;;9.23;;
57071;SDS011;42956;51.366;11.298;2023-04-06T08:34:26;14.02;;;9.70;;
57071;SDS011;42956;51.366;11.298;2023-04-06T08:36:54;18.92;;;9.98;;
57071;SDS011;42956;51.366;11.298;2023-04-06T08:39:22;11.32;;;9.35;;
57071;SDS011;42956;51.366;11.298;2023-04-06T08:41:52;14.45;;;9.15;;
57071;SDS011;42956;51.366;11.298;2023-04-06T08:44:23;11.13;;;8.27;;
57071;SDS011;42956;51.366;11.298;2023-04-06T08:46:51;14.02;;;8.85;;
57071;SDS011;42956;51.366;11.298;2023-04-06T08:49:20;11.75;;;9.30;;
57071;SDS011;42956;51.366;11.298;2023-04-06T08:51:50;12.15;;;8.48;;
57071;SDS011;42956;51.366;11.298;2023-04-06T08:54:18;12.32;;;8.70;;
57071;SDS011;42956;51.366;11.298;2023-04-06T08:56:46;10.45;;;9.27;;
57071;SDS011;42956;51.366;11.298;2023-04-06T08:59:15;13.15;;;9.88;;
57071;SDS011;42956;51.366;11.298;2023-04-06T09:01:43;10.95;;;8.95;;
57071;SDS011;42956;51.366;11.298;2023-04-06T09:04:12;10.70;;;8.60;;
57071;SDS011;42956;51.366;11.298;2023-04-06T09:06:41;14.82;;;9.75;;
57071;SDS011;42956;51.366;11.298;2023-04-06T09:09:10;11.68;;;9.15;;
57071;SDS011;42956;51.366;11.298;2023-04-06T09:11:42;14.45;;;9.85;;
57071;SDS011;42956;51.366;11.298;2023-04-06T09:14:10;12.95;;;9.48;;
57071;SDS011;42956;51.366;11.298;2023-04-06T09:16:41;13.25;;;9.57;;
57071;SDS011;42956;51.366;11.298;2023-04-06T09:19:09;11.52;;;8.80;;
57071;SDS011;42956;51.366;11.298;2023-04-06T09:21:37;16.48;;;9.57;;
57071;SDS011;42956;51.366;11.298;2023-04-06T09:24:06;10.50;;;8.93;;
57071;SDS011;42956;51.366;11.298;2023-04-06T09:26:45;14.38;;;11.10;;
57071;SDS011;42956;51.366;11.298;2023-04-06T09:29:23;11.18;;;9.32;;
57071;SDS011;42956;51.366;11.298;2023-04-06T09:31:52;16.73;;;10.00;;
57071;SDS011;42956;51.366;11.298;2023-04-06T09:34:32;14.02;;;9.93;;
57071;SDS011;42956;51.366;11.298;2023-04-06T09:37:00;13.15;;;10.15;;
57071;SDS011;42956;51.366;11.298;2023-04-06T09:39:39;14.48;;;9.63;;
57071;SDS011;42956;51.366;11.298;2023-04-06T09:42:08;14.18;;;9.00;;
57071;SDS011;42956;51.366;11.298;2023-04-06T09:44:37;13.57;;;9.30;;
57071;SDS011;42956;51.366;11.298;2023-04-06T09:47:06;16.42;;;9.55;;
57071;SDS011;42956;51.366;11.298;2023-04-06T09:49:34;14.45;;;9.77;;
57071;SDS011;42956;51.366;11.298;2023-04-06T09:52:03;12.38;;;8.15;;
57071;SDS011;42956;51.366;11.298;2023-04-06T09:54:31;14.68;;;8.23;;
57071;SDS011;42956;51.366;11.298;2023-04-06T09:57:01;12.57;;;7.95;;
57071;SDS011;42956;51.366;11.298;2023-04-06T09:59:36;15.10;;;7.30;;
57071;SDS011;42956;51.366;11.298;2023-04-06T10:02:05;12.52;;;7.57;;
57071;SDS011;42956;51.366;11.298;2023-04-06T10:04:36;11.85;;;7.97;;
57071;SDS011;42956;51.366;11.298;2023-04-06T10:07:09;13.88;;;7.53;;
57071;SDS011;42956;51.366;11.298;2023-04-06T10:09:39;21.02;;;8.20;;
57071;SDS011;42956;51.366;11.298;2023-04-06T10:12:08;16.10;;;7.82;;
57071;SDS011;42956;51.366;11.298;2023-04-06T10:14:37;13.02;;;7.75;;
57071;SDS011;42956;51.366;11.298;2023-04-06T10:17:07;10.30;;;7.35;;
57071;SDS011;42956;51.366;11.298;2023-04-06T10:19:37;13.05;;;8.07;;
57071;SDS011;42956;51.366;11.298;2023-04-06T10:22:07;9.68;;;7.47;;
57071;SDS011;42956;51.366;11.298;2023-04-06T10:24:36;12.70;;;7.22;;
57071;SDS011;42956;51.366;11.298;2023-04-06T10:27:04;12.60;;;7.45;;
57071;SDS011;42956;51.366;11.298;2023-04-06T10:29:46;11.45;;;7.45;;
57071;SDS011;42956;51.366;11.298;2023-04-06T10:32:15;12.88;;;5.75;;
57071;SDS011;42956;51.366;11.298;2023-04-06T10:34:43;9.07;;;6.63;;
57071;SDS011;42956;51.366;11.298;2023-04-06T10:37:12;10.52;;;6.55;;
57071;SDS011;42956;51.366;11.298;2023-04-06T10:39:47;11.07;;;5.85;;
57071;SDS011;42956;51.366;11.298;2023-04-06T10:42:15;5.70;;;4.68;;
57071;SDS011;42956;51.366;11.298;2023-04-06T10:44:43;13.57;;;6.68;;
57071;SDS011;42956;51.366;11.298;2023-04-06T10:47:19;8.15;;;5.80;;
57071;SDS011;42956;51.366;11.298;2023-04-06T10:49:46;11.77;;;5.70;;
57071;SDS011;42956;51.366;11.298;2023-04-06T10:52:14;10.35;;;6.57;;
57071;SDS011;42956;51.366;11.298;2023-04-06T10:54:42;12.18;;;6.35;;
57071;SDS011;42956;51.366;11.298;2023-04-06T10:57:13;9.45;;;6.50;;
57071;SDS011;42956;51.366;11.298;2023-04-06T10:59:42;12.23;;;6.50;;
57071;SDS011;42956;51.366;11.298;2023-04-06T11:02:19;11.40;;;6.80;;
57071;SDS011;42956;51.366;11.298;2023-04-06T11:04:55;11.25;;;6.90;;
57071;SDS011;42956;51.366;11.298;2023-04-06T11:07:24;9.63;;;7.25;;
57071;SDS011;42956;51.366;11.298;2023-04-06T11:09:52;11.38;;;7.15;;
57071;SDS011;42956;51.366;11.298;2023-04-06T11:12:41;8.40;;;6.30;;
57071;SDS011;42956;51.366;11.298;2023-04-06T11:15:09;8.38;;;6.18;;
57071;SDS011;42956;51.366;11.298;2023-04-06T11:17:38;11.43;;;7.38;;
57071;SDS011;42956;51.366;11.298;2023-04-06T11:20:09;10.35;;;6.60;;
57071;SDS011;42956;51.366;11.298;2023-04-06T11:22:47;8.10;;;5.72;;
57071;SDS011;42956;51.366;11.298;2023-04-06T11:25:15;8.77;;;6.22;;
57071;SDS011;42956;51.366;11.298;2023-04-06T11:27:44;9.90;;;5.55;;
57071;SDS011;42956;51.366;11.298;2023-04-06T11:30:13;9.30;;;6.00;;
57071;SDS011;42956;51.366;11.298;2023-04-06T11:32:42;10.40;;;7.00;;
57071;SDS011;42956;51.366;11.298;2023-04-06T11:35:11;9.05;;;6.03;;
57071;SDS011;42956;51.366;11.298;2023-04-06T11:37:40;8.38;;;6.18;;
57071;SDS011;42956;51.366;11.298;2023-04-06T11:40:10;8.18;;;6.18;;
57071;SDS011;42956;51.366;11.298;2023-04-06T11:42:38;8.60;;;5.68;;
57071;SDS011;42956;51.366;11.298;2023-04-06T11:45:06;10.32;;;6.18;;
57071;SDS011;42956;51.366;11.298;2023-04-06T11:47:35;11.63;;;7.45;;
57071;SDS011;42956;51.366;11.298;2023-04-06T11:50:09;7.20;;;5.85;;
57071;SDS011;42956;51.366;11.298;2023-04-06T11:55:12;13.88;;;6.45;;
57071;SDS011;42956;51.366;11.298;2023-04-06T11:57:41;10.68;;;5.90;;
57071;SDS011;42956;51.366;11.298;2023-04-06T12:00:09;5.90;;;5.18;;
57071;SDS011;42956;51.366;11.298;2023-04-06T12:02:38;7.85;;;6.07;;
57071;SDS011;42956;51.366;11.298;2023-04-06T12:05:06;9.52;;;5.82;;
57071;SDS011;42956;51.366;11.298;2023-04-06T12:07:36;10.13;;;6.00;;
57071;SDS011;42956;51.366;11.298;2023-04-06T12:10:04;8.43;;;6.70;;
57071;SDS011;42956;51.366;11.298;2023-04-06T12:12:32;10.93;;;7.00;;
57071;SDS011;42956;51.366;11.298;2023-04-06T12:15:00;10.18;;;6.20;;
57071;SDS011;42956;51.366;11.298;2023-04-06T12:17:28;8.40;;;6.43;;
57071;SDS011;42956;51.366;11.298;2023-04-06T12:19:56;11.35;;;6.72;;
57071;SDS011;42956;51.366;11.298;2023-04-06T12:22:36;9.60;;;6.13;;
57071;SDS011;42956;51.366;11.298;2023-04-06T12:25:04;7.38;;;6.40;;
57071;SDS011;42956;51.366;11.298;2023-04-06T12:27:33;9.45;;;6.70;;
57071;SDS011;42956;51.366;11.298;2023-04-06T12:30:01;9.75;;;7.13;;
57071;SDS011;42956;51.366;11.298;2023-04-06T12:32:29;11.88;;;6.95;;
57071;SDS011;42956;51.366;11.298;2023-04-06T12:34:59;9.25;;;6.43;;
57071;SDS011;42956;51.366;11.298;2023-04-06T12:37:27;8.35;;;5.68;;
57071;SDS011;42956;51.366;11.298;2023-04-06T12:39:56;10.52;;;6.85;;
57071;SDS011;42956;51.366;11.298;2023-04-06T12:42:24;8.77;;;6.55;;
57071;SDS011;42956;51.366;11.298;2023-04-06T12:44:52;8.98;;;6.97;;
57071;SDS011;42956;51.366;11.298;2023-04-06T12:47:21;9.25;;;5.68;;
57071;SDS011;42956;51.366;11.298;2023-04-06T12:49:49;8.20;;;6.60;;
57071;SDS011;42956;51.366;11.298;2023-04-06T12:52:17;8.30;;;6.60;;
57071;SDS011;42956;51.366;11.298;2023-04-06T12:54:47;10.40;;;6.82;;
57071;SDS011;42956;51.366;11.298;2023-04-06T12:57:18;6.20;;;5.35;;
57071;SDS011;42956;51.366;11.298;2023-04-06T12:59:49;10.55;;;5.97;;
57071;SDS011;42956;51.366;11.298;2023-04-06T13:02:18;7.95;;;5.40;;
57071;SDS011;42956;51.366;11.298;2023-04-06T13:04:55;8.85;;;5.68;;
57071;SDS011;42956;51.366;11.298;2023-04-06T13:07:24;7.72;;;5.82;;
57071;SDS011;42956;51.366;11.298;2023-04-06T13:09:51;10.38;;;6.97;;
57071;SDS011;42956;51.366;11.298;2023-04-06T13:12:22;7.32;;;5.38;;
57071;SDS011;42956;51.366;11.298;2023-04-06T13:14:50;8.73;;;6.20;;
57071;SDS011;42956;51.366;11.298;2023-04-06T13:17:19;7.45;;;5.85;;
57071;SDS011;42956;51.366;11.298;2023-04-06T13:19:47;7.68;;;5.40;;
57071;SDS011;42956;51.366;11.298;2023-04-06T13:22:15;11.00;;;6.45;;
57071;SDS011;42956;51.366;11.298;2023-04-06T13:24:43;8.45;;;6.10;;
57071;SDS011;42956;51.366;11.298;2023-04-06T13:27:11;9.55;;;6.50;;
57071;SDS011;42956;51.366;11.298;2023-04-06T13:29:40;11.20;;;6.50;;
57071;SDS011;42956;51.366;11.298;2023-04-06T13:32:08;12.27;;;7.05;;
57071;SDS011;42956;51.366;11.298;2023-04-06T13:34:37;7.85;;;6.05;;
57071;SDS011;42956;51.366;11.298;2023-04-06T13:37:05;7.05;;;5.95;;
57071;SDS011;42956;51.366;11.298;2023-04-06T13:39:33;12.10;;;6.13;;
57071;SDS011;42956;51.366;11.298;2023-04-06T13:42:01;7.47;;;4.78;;
57071;SDS011;42956;51.366;11.298;2023-04-06T13:44:29;6.35;;;4.95;;
57071;SDS011;42956;51.366;11.298;2023-04-06T13:46:59;9.60;;;5.43;;
57071;SDS011;42956;51.366;11.298;2023-04-06T13:49:27;9.75;;;6.68;;
57071;SDS011;42956;51.366;11.298;2023-04-06T13:51:54;7.68;;;6.13;;
57071;SDS011;42956;51.366;11.298;2023-04-06T13:54:23;9.60;;;6.60;;
57071;SDS011;42956;51.366;11.298;2023-04-06T13:56:51;9.25;;;6.32;;
57071;SDS011;42956;51.366;11.298;2023-04-06T13:59:19;7.85;;;6.40;;
57071;SDS011;42956;51.366;11.298;2023-04-06T14:01:48;8.73;;;6.72;;
57071;SDS011;42956;51.366;11.298;2023-04-06T14:04:18;6.95;;;5.93;;
57071;SDS011;42956;51.366;11.298;2023-04-06T14:06:46;8.80;;;6.18;;
57071;SDS011;42956;51.366;11.298;2023-04-06T14:09:14;10.85;;;6.32;;
57071;SDS011;42956;51.366;11.298;2023-04-06T14:11:42;7.40;;;5.95;;
57071;SDS011;42956;51.366;11.298;2023-04-06T14:14:10;9.10;;;6.05;;
57071;SDS011;42956;51.366;11.298;2023-04-06T14:16:38;7.32;;;5.45;;
57071;SDS011;42956;51.366;11.298;2023-04-06T14:19:06;7.57;;;6.03;;
57071;SDS011;42956;51.366;11.298;2023-04-06T14:21:35;9.90;;;6.50;;
57071;SDS011;42956;51.366;11.298;2023-04-06T14:24:04;8.27;;;6.28;;
57071;SDS011;42956;51.366;11.298;2023-04-06T14:26:32;10.80;;;6.80;;
57071;SDS011;42956;51.366;11.298;2023-04-06T14:29:00;8.23;;;6.13;;
57071;SDS011;42956;51.366;11.298;2023-04-06T14:31:28;8.20;;;5.47;;
57071;SDS011;42956;51.366;11.298;2023-04-06T14:33:56;8.73;;;6.43;;